METAR Data
IDs: Format: Raw Decoded Include TAF

Data at: 1340 UTC 26 Feb 2021

EDSB 261320Z VRB01KT 9999 BKN038 14/06 Q1030